sensor_id;sensor_type;location;lat;lon;timestamp;P1;durP1;ratioP1;P2;durP2;ratioP2
64297;SDS011;50639;53.270;7.956;2024-02-14T00:01:31;25.88;;;11.60;;
64297;SDS011;50639;53.270;7.956;2024-02-14T00:03:56;15.45;;;9.35;;
64297;SDS011;50639;53.270;7.956;2024-02-14T00:06:21;17.63;;;8.70;;
64297;SDS011;50639;53.270;7.956;2024-02-14T00:08:48;21.90;;;10.95;;
64297;SDS011;50639;53.270;7.956;2024-02-14T00:11:14;22.95;;;10.98;;
64297;SDS011;50639;53.270;7.956;2024-02-14T00:13:39;16.83;;;9.40;;
64297;SDS011;50639;53.270;7.956;2024-02-14T00:16:05;15.73;;;8.48;;
64297;SDS011;50639;53.270;7.956;2024-02-14T00:18:31;10.77;;;6.28;;
64297;SDS011;50639;53.270;7.956;2024-02-14T00:20:57;13.35;;;7.50;;
64297;SDS011;50639;53.270;7.956;2024-02-14T00:23:22;11.25;;;7.28;;
64297;SDS011;50639;53.270;7.956;2024-02-14T00:25:48;14.55;;;8.48;;
64297;SDS011;50639;53.270;7.956;2024-02-14T00:28:13;12.75;;;6.82;;
64297;SDS011;50639;53.270;7.956;2024-02-14T00:30:39;14.68;;;7.50;;
64297;SDS011;50639;53.270;7.956;2024-02-14T00:33:04;15.23;;;8.38;;
64297;SDS011;50639;53.270;7.956;2024-02-14T00:35:29;14.30;;;7.65;;
64297;SDS011;50639;53.270;7.956;2024-02-14T00:37:55;12.75;;;6.57;;
64297;SDS011;50639;53.270;7.956;2024-02-14T00:40:20;11.23;;;6.03;;
64297;SDS011;50639;53.270;7.956;2024-02-14T00:42:46;12.90;;;7.32;;
64297;SDS011;50639;53.270;7.956;2024-02-14T00:45:11;12.63;;;7.18;;
64297;SDS011;50639;53.270;7.956;2024-02-14T00:47:37;15.43;;;7.35;;
64297;SDS011;50639;53.270;7.956;2024-02-14T00:50:02;12.38;;;7.65;;
64297;SDS011;50639;53.270;7.956;2024-02-14T00:52:28;12.60;;;7.05;;
64297;SDS011;50639;53.270;7.956;2024-02-14T00:54:54;12.95;;;6.95;;
64297;SDS011;50639;53.270;7.956;2024-02-14T00:57:19;9.95;;;6.53;;
64297;SDS011;50639;53.270;7.956;2024-02-14T00:59:45;14.07;;;8.07;;
64297;SDS011;50639;53.270;7.956;2024-02-14T01:02:11;16.88;;;8.05;;
64297;SDS011;50639;53.270;7.956;2024-02-14T01:04:37;13.60;;;7.00;;
64297;SDS011;50639;53.270;7.956;2024-02-14T01:07:05;10.07;;;6.18;;
64297;SDS011;50639;53.270;7.956;2024-02-14T01:09:31;11.70;;;6.10;;
64297;SDS011;50639;53.270;7.956;2024-02-14T01:11:57;12.52;;;6.90;;
64297;SDS011;50639;53.270;7.956;2024-02-14T01:14:24;16.70;;;7.75;;
64297;SDS011;50639;53.270;7.956;2024-02-14T01:16:49;14.15;;;7.10;;
64297;SDS011;50639;53.270;7.956;2024-02-14T01:19:15;13.38;;;8.57;;
64297;SDS011;50639;53.270;7.956;2024-02-14T01:21:40;13.35;;;6.72;;
64297;SDS011;50639;53.270;7.956;2024-02-14T01:24:06;18.73;;;11.63;;
64297;SDS011;50639;53.270;7.956;2024-02-14T01:26:33;23.50;;;13.43;;
64297;SDS011;50639;53.270;7.956;2024-02-14T01:28:58;17.00;;;9.18;;
64297;SDS011;50639;53.270;7.956;2024-02-14T01:31:26;12.80;;;7.88;;
64297;SDS011;50639;53.270;7.956;2024-02-14T01:33:52;16.52;;;9.43;;
64297;SDS011;50639;53.270;7.956;2024-02-14T01:36:18;14.30;;;9.40;;
64297;SDS011;50639;53.270;7.956;2024-02-14T01:38:43;15.15;;;7.53;;
64297;SDS011;50639;53.270;7.956;2024-02-14T01:41:10;12.63;;;8.52;;
64297;SDS011;50639;53.270;7.956;2024-02-14T01:43:35;12.98;;;7.68;;
64297;SDS011;50639;53.270;7.956;2024-02-14T01:46:09;21.15;;;10.00;;
64297;SDS011;50639;53.270;7.956;2024-02-14T01:48:35;13.88;;;7.55;;
64297;SDS011;50639;53.270;7.956;2024-02-14T01:51:01;15.88;;;8.48;;
64297;SDS011;50639;53.270;7.956;2024-02-14T01:53:28;16.17;;;11.85;;
64297;SDS011;50639;53.270;7.956;2024-02-14T01:55:56;15.00;;;9.38;;
64297;SDS011;50639;53.270;7.956;2024-02-14T01:58:22;14.73;;;10.07;;
64297;SDS011;50639;53.270;7.956;2024-02-14T02:00:48;17.40;;;11.45;;
64297;SDS011;50639;53.270;7.956;2024-02-14T02:03:15;16.88;;;11.80;;
64297;SDS011;50639;53.270;7.956;2024-02-14T02:05:41;15.43;;;9.57;;
64297;SDS011;50639;53.270;7.956;2024-02-14T02:08:07;13.45;;;9.18;;
64297;SDS011;50639;53.270;7.956;2024-02-14T02:13:00;13.45;;;9.00;;
64297;SDS011;50639;53.270;7.956;2024-02-14T02:15:26;13.48;;;9.43;;
64297;SDS011;50639;53.270;7.956;2024-02-14T02:17:53;21.10;;;14.43;;
64297;SDS011;50639;53.270;7.956;2024-02-14T02:20:19;19.00;;;12.05;;
64297;SDS011;50639;53.270;7.956;2024-02-14T02:22:48;17.02;;;9.13;;
64297;SDS011;50639;53.270;7.956;2024-02-14T02:25:13;13.60;;;9.15;;
64297;SDS011;50639;53.270;7.956;2024-02-14T02:27:39;11.80;;;8.25;;
64297;SDS011;50639;53.270;7.956;2024-02-14T02:30:05;13.27;;;9.80;;
64297;SDS011;50639;53.270;7.956;2024-02-14T02:32:32;16.52;;;11.35;;
64297;SDS011;50639;53.270;7.956;2024-02-14T02:34:57;19.50;;;13.05;;
64297;SDS011;50639;53.270;7.956;2024-02-14T02:37:24;15.85;;;10.38;;
64297;SDS011;50639;53.270;7.956;2024-02-14T02:39:50;14.98;;;10.73;;
64297;SDS011;50639;53.270;7.956;2024-02-14T02:42:16;14.30;;;10.00;;
64297;SDS011;50639;53.270;7.956;2024-02-14T02:44:45;10.95;;;8.75;;
64297;SDS011;50639;53.270;7.956;2024-02-14T02:47:11;10.02;;;7.75;;
64297;SDS011;50639;53.270;7.956;2024-02-14T02:49:37;15.80;;;8.80;;
64297;SDS011;50639;53.270;7.956;2024-02-14T02:52:03;12.30;;;8.02;;
64297;SDS011;50639;53.270;7.956;2024-02-14T02:54:29;17.05;;;9.57;;
64297;SDS011;50639;53.270;7.956;2024-02-14T02:56:54;11.48;;;8.30;;
64297;SDS011;50639;53.270;7.956;2024-02-14T02:59:20;11.52;;;8.07;;
64297;SDS011;50639;53.270;7.956;2024-02-14T03:01:45;10.77;;;7.55;;
64297;SDS011;50639;53.270;7.956;2024-02-14T03:04:11;14.35;;;10.27;;
64297;SDS011;50639;53.270;7.956;2024-02-14T03:06:38;11.55;;;9.35;;
64297;SDS011;50639;53.270;7.956;2024-02-14T03:09:03;12.05;;;8.73;;
64297;SDS011;50639;53.270;7.956;2024-02-14T03:11:30;11.85;;;8.50;;
64297;SDS011;50639;53.270;7.956;2024-02-14T03:13:56;11.32;;;8.20;;
64297;SDS011;50639;53.270;7.956;2024-02-14T03:16:21;9.75;;;7.53;;
64297;SDS011;50639;53.270;7.956;2024-02-14T03:18:49;11.95;;;9.10;;
64297;SDS011;50639;53.270;7.956;2024-02-14T03:21:15;12.98;;;9.25;;
64297;SDS011;50639;53.270;7.956;2024-02-14T03:23:40;9.77;;;8.07;;
64297;SDS011;50639;53.270;7.956;2024-02-14T03:26:06;10.32;;;7.82;;
64297;SDS011;50639;53.270;7.956;2024-02-14T03:28:33;11.82;;;8.88;;
64297;SDS011;50639;53.270;7.956;2024-02-14T03:30:59;10.02;;;8.13;;
64297;SDS011;50639;53.270;7.956;2024-02-14T03:33:24;10.90;;;8.85;;
64297;SDS011;50639;53.270;7.956;2024-02-14T03:35:50;11.00;;;8.52;;
64297;SDS011;50639;53.270;7.956;2024-02-14T03:38:25;11.35;;;8.10;;
64297;SDS011;50639;53.270;7.956;2024-02-14T03:40:51;8.73;;;6.85;;
64297;SDS011;50639;53.270;7.956;2024-02-14T03:43:17;11.38;;;8.18;;
64297;SDS011;50639;53.270;7.956;2024-02-14T03:45:42;10.05;;;8.25;;
64297;SDS011;50639;53.270;7.956;2024-02-14T03:48:08;10.57;;;8.10;;
64297;SDS011;50639;53.270;7.956;2024-02-14T03:50:35;9.70;;;8.18;;
64297;SDS011;50639;53.270;7.956;2024-02-14T03:53:00;11.20;;;8.93;;
64297;SDS011;50639;53.270;7.956;2024-02-14T03:55:26;11.77;;;9.43;;
64297;SDS011;50639;53.270;7.956;2024-02-14T03:57:52;10.85;;;8.70;;
64297;SDS011;50639;53.270;7.956;2024-02-14T04:00:17;11.48;;;8.73;;
64297;SDS011;50639;53.270;7.956;2024-02-14T04:02:43;11.85;;;9.45;;
64297;SDS011;50639;53.270;7.956;2024-02-14T04:05:08;11.48;;;9.07;;
64297;SDS011;50639;53.270;7.956;2024-02-14T04:07:34;14.27;;;10.27;;
64297;SDS011;50639;53.270;7.956;2024-02-14T04:09:59;13.77;;;8.13;;
64297;SDS011;50639;53.270;7.956;2024-02-14T04:12:25;9.65;;;8.07;;
64297;SDS011;50639;53.270;7.956;2024-02-14T04:14:50;9.93;;;7.95;;
64297;SDS011;50639;53.270;7.956;2024-02-14T04:17:16;10.93;;;9.35;;
64297;SDS011;50639;53.270;7.956;2024-02-14T04:19:41;10.18;;;8.40;;
64297;SDS011;50639;53.270;7.956;2024-02-14T04:22:07;11.45;;;9.82;;
64297;SDS011;50639;53.270;7.956;2024-02-14T04:24:33;10.30;;;8.30;;
64297;SDS011;50639;53.270;7.956;2024-02-14T04:27:00;10.60;;;9.15;;
64297;SDS011;50639;53.270;7.956;2024-02-14T04:29:27;11.02;;;7.72;;
64297;SDS011;50639;53.270;7.956;2024-02-14T04:34:20;10.32;;;8.60;;
64297;SDS011;50639;53.270;7.956;2024-02-14T04:36:46;15.68;;;11.25;;
64297;SDS011;50639;53.270;7.956;2024-02-14T04:39:12;12.05;;;10.05;;
64297;SDS011;50639;53.270;7.956;2024-02-14T04:41:37;15.55;;;13.35;;
64297;SDS011;50639;53.270;7.956;2024-02-14T04:44:04;11.93;;;8.57;;
64297;SDS011;50639;53.270;7.956;2024-02-14T04:46:33;33.80;;;24.25;;
64297;SDS011;50639;53.270;7.956;2024-02-14T04:49:00;46.92;;;29.02;;
64297;SDS011;50639;53.270;7.956;2024-02-14T04:51:28;48.83;;;28.95;;
64297;SDS011;50639;53.270;7.956;2024-02-14T04:53:55;27.40;;;21.73;;
64297;SDS011;50639;53.270;7.956;2024-02-14T04:56:24;25.05;;;21.13;;
64297;SDS011;50639;53.270;7.956;2024-02-14T04:58:51;15.20;;;13.60;;
64297;SDS011;50639;53.270;7.956;2024-02-14T05:01:16;18.17;;;14.73;;
64297;SDS011;50639;53.270;7.956;2024-02-14T05:03:43;14.80;;;11.57;;
64297;SDS011;50639;53.270;7.956;2024-02-14T05:06:09;13.05;;;10.77;;
64297;SDS011;50639;53.270;7.956;2024-02-14T05:08:34;13.60;;;10.98;;
64297;SDS011;50639;53.270;7.956;2024-02-14T05:11:00;12.25;;;10.38;;
64297;SDS011;50639;53.270;7.956;2024-02-14T05:13:25;10.35;;;8.60;;
64297;SDS011;50639;53.270;7.956;2024-02-14T05:15:51;10.50;;;8.88;;
64297;SDS011;50639;53.270;7.956;2024-02-14T05:18:16;10.15;;;8.25;;
64297;SDS011;50639;53.270;7.956;2024-02-14T05:20:42;8.95;;;7.70;;
64297;SDS011;50639;53.270;7.956;2024-02-14T05:23:07;11.80;;;8.93;;
64297;SDS011;50639;53.270;7.956;2024-02-14T05:25:33;11.15;;;9.35;;
64297;SDS011;50639;53.270;7.956;2024-02-14T05:27:59;11.98;;;9.80;;
64297;SDS011;50639;53.270;7.956;2024-02-14T05:30:26;10.05;;;8.48;;
64297;SDS011;50639;53.270;7.956;2024-02-14T05:32:51;8.75;;;7.35;;
64297;SDS011;50639;53.270;7.956;2024-02-14T05:35:17;7.68;;;6.25;;
64297;SDS011;50639;53.270;7.956;2024-02-14T05:37:43;8.77;;;7.30;;
64297;SDS011;50639;53.270;7.956;2024-02-14T05:40:08;13.38;;;10.25;;
64297;SDS011;50639;53.270;7.956;2024-02-14T05:42:34;79.53;;;43.90;;
64297;SDS011;50639;53.270;7.956;2024-02-14T05:44:59;71.07;;;37.65;;
64297;SDS011;50639;53.270;7.956;2024-02-14T05:47:25;98.43;;;49.70;;
64297;SDS011;50639;53.270;7.956;2024-02-14T05:49:51;24.30;;;15.38;;
64297;SDS011;50639;53.270;7.956;2024-02-14T05:52:16;25.58;;;16.25;;
64297;SDS011;50639;53.270;7.956;2024-02-14T05:54:43;65.82;;;35.67;;
64297;SDS011;50639;53.270;7.956;2024-02-14T05:57:08;31.95;;;18.60;;
64297;SDS011;50639;53.270;7.956;2024-02-14T05:59:34;30.70;;;16.83;;
64297;SDS011;50639;53.270;7.956;2024-02-14T06:01:59;16.90;;;9.65;;
64297;SDS011;50639;53.270;7.956;2024-02-14T06:04:28;25.92;;;15.10;;
64297;SDS011;50639;53.270;7.956;2024-02-14T06:06:53;16.65;;;10.40;;
64297;SDS011;50639;53.270;7.956;2024-02-14T06:09:18;26.98;;;18.25;;
64297;SDS011;50639;53.270;7.956;2024-02-14T06:11:46;18.50;;;12.35;;
64297;SDS011;50639;53.270;7.956;2024-02-14T06:14:12;9.20;;;7.00;;
64297;SDS011;50639;53.270;7.956;2024-02-14T06:16:38;9.73;;;7.57;;
64297;SDS011;50639;53.270;7.956;2024-02-14T06:19:03;7.40;;;5.47;;
64297;SDS011;50639;53.270;7.956;2024-02-14T06:21:30;8.77;;;7.32;;
64297;SDS011;50639;53.270;7.956;2024-02-14T06:23:55;8.25;;;5.30;;
64297;SDS011;50639;53.270;7.956;2024-02-14T06:26:21;8.65;;;5.07;;
64297;SDS011;50639;53.270;7.956;2024-02-14T06:28:46;12.77;;;11.13;;
64297;SDS011;50639;53.270;7.956;2024-02-14T06:31:12;6.38;;;4.53;;
64297;SDS011;50639;53.270;7.956;2024-02-14T06:33:37;4.30;;;3.75;;
64297;SDS011;50639;53.270;7.956;2024-02-14T06:36:02;5.85;;;4.55;;
64297;SDS011;50639;53.270;7.956;2024-02-14T06:38:28;8.10;;;6.20;;
64297;SDS011;50639;53.270;7.956;2024-02-14T06:40:54;6.40;;;4.95;;
64297;SDS011;50639;53.270;7.956;2024-02-14T06:43:19;5.55;;;4.18;;
64297;SDS011;50639;53.270;7.956;2024-02-14T06:45:45;5.07;;;4.28;;
64297;SDS011;50639;53.270;7.956;2024-02-14T06:48:11;4.95;;;4.15;;
64297;SDS011;50639;53.270;7.956;2024-02-14T06:50:36;6.97;;;5.13;;
64297;SDS011;50639;53.270;7.956;2024-02-14T06:53:02;7.85;;;5.28;;
64297;SDS011;50639;53.270;7.956;2024-02-14T06:55:28;5.72;;;4.35;;
64297;SDS011;50639;53.270;7.956;2024-02-14T06:57:55;6.13;;;4.40;;
64297;SDS011;50639;53.270;7.956;2024-02-14T07:00:21;8.90;;;6.60;;
64297;SDS011;50639;53.270;7.956;2024-02-14T07:02:47;9.27;;;5.95;;
64297;SDS011;50639;53.270;7.956;2024-02-14T07:05:13;8.88;;;6.70;;
64297;SDS011;50639;53.270;7.956;2024-02-14T07:07:39;6.20;;;5.18;;
64297;SDS011;50639;53.270;7.956;2024-02-14T07:10:06;6.68;;;5.43;;
64297;SDS011;50639;53.270;7.956;2024-02-14T07:12:32;8.57;;;6.85;;
64297;SDS011;50639;53.270;7.956;2024-02-14T07:14:57;6.72;;;5.50;;
64297;SDS011;50639;53.270;7.956;2024-02-14T07:17:23;7.75;;;5.47;;
64297;SDS011;50639;53.270;7.956;2024-02-14T07:19:48;9.50;;;6.35;;
64297;SDS011;50639;53.270;7.956;2024-02-14T07:22:15;7.45;;;5.70;;
64297;SDS011;50639;53.270;7.956;2024-02-14T07:24:42;7.80;;;6.18;;
64297;SDS011;50639;53.270;7.956;2024-02-14T07:27:08;7.87;;;5.87;;
64297;SDS011;50639;53.270;7.956;2024-02-14T07:29:33;8.43;;;6.72;;
64297;SDS011;50639;53.270;7.956;2024-02-14T07:32:01;10.18;;;7.25;;
64297;SDS011;50639;53.270;7.956;2024-02-14T07:34:27;7.78;;;6.35;;
64297;SDS011;50639;53.270;7.956;2024-02-14T07:36:52;6.78;;;5.20;;
64297;SDS011;50639;53.270;7.956;2024-02-14T07:39:18;7.47;;;6.00;;
64297;SDS011;50639;53.270;7.956;2024-02-14T07:41:43;19.30;;;15.93;;
64297;SDS011;50639;53.270;7.956;2024-02-14T07:44:09;7.68;;;5.93;;
64297;SDS011;50639;53.270;7.956;2024-02-14T07:46:36;8.60;;;6.93;;
64297;SDS011;50639;53.270;7.956;2024-02-14T07:49:02;9.95;;;6.78;;
64297;SDS011;50639;53.270;7.956;2024-02-14T07:51:27;7.45;;;5.20;;
64297;SDS011;50639;53.270;7.956;2024-02-14T07:53:54;7.45;;;5.20;;
64297;SDS011;50639;53.270;7.956;2024-02-14T07:56:19;7.63;;;5.68;;
64297;SDS011;50639;53.270;7.956;2024-02-14T07:58:45;6.07;;;5.13;;
64297;SDS011;50639;53.270;7.956;2024-02-14T08:01:10;8.70;;;5.38;;
64297;SDS011;50639;53.270;7.956;2024-02-14T08:03:36;6.72;;;4.82;;
64297;SDS011;50639;53.270;7.956;2024-02-14T08:06:02;8.35;;;5.20;;
64297;SDS011;50639;53.270;7.956;2024-02-14T08:08:27;6.97;;;4.78;;
64297;SDS011;50639;53.270;7.956;2024-02-14T08:10:53;5.47;;;4.30;;
64297;SDS011;50639;53.270;7.956;2024-02-14T08:13:20;10.93;;;5.10;;
64297;SDS011;50639;53.270;7.956;2024-02-14T08:15:45;10.48;;;4.40;;
64297;SDS011;50639;53.270;7.956;2024-02-14T08:18:11;6.78;;;4.43;;
64297;SDS011;50639;53.270;7.956;2024-02-14T08:20:37;16.10;;;5.35;;
64297;SDS011;50639;53.270;7.956;2024-02-14T08:23:03;11.63;;;4.18;;
64297;SDS011;50639;53.270;7.956;2024-02-14T08:25:29;7.32;;;4.05;;
64297;SDS011;50639;53.270;7.956;2024-02-14T08:27:55;15.65;;;4.63;;
64297;SDS011;50639;53.270;7.956;2024-02-14T08:30:21;13.35;;;5.55;;
64297;SDS011;50639;53.270;7.956;2024-02-14T08:32:46;13.52;;;4.90;;
64297;SDS011;50639;53.270;7.956;2024-02-14T08:35:12;7.18;;;4.38;;
64297;SDS011;50639;53.270;7.956;2024-02-14T08:37:39;7.30;;;4.80;;
64297;SDS011;50639;53.270;7.956;2024-02-14T08:40:06;7.43;;;4.70;;
64297;SDS011;50639;53.270;7.956;2024-02-14T08:42:35;5.60;;;4.25;;
64297;SDS011;50639;53.270;7.956;2024-02-14T08:45:01;6.65;;;4.50;;
64297;SDS011;50639;53.270;7.956;2024-02-14T08:47:26;7.53;;;5.15;;
64297;SDS011;50639;53.270;7.956;2024-02-14T08:49:51;5.80;;;4.53;;
64297;SDS011;50639;53.270;7.956;2024-02-14T08:52:17;7.10;;;4.50;;
64297;SDS011;50639;53.270;7.956;2024-02-14T08:54:43;9.43;;;4.90;;
64297;SDS011;50639;53.270;7.956;2024-02-14T08:57:09;7.18;;;4.63;;
64297;SDS011;50639;53.270;7.956;2024-02-14T08:59:34;6.90;;;5.00;;
64297;SDS011;50639;53.270;7.956;2024-02-14T09:02:00;7.70;;;4.80;;
64297;SDS011;50639;53.270;7.956;2024-02-14T09:04:25;8.57;;;4.97;;
64297;SDS011;50639;53.270;7.956;2024-02-14T09:06:52;9.02;;;5.30;;
64297;SDS011;50639;53.270;7.956;2024-02-14T09:09:17;9.25;;;5.03;;
64297;SDS011;50639;53.270;7.956;2024-02-14T09:11:44;8.07;;;4.70;;
64297;SDS011;50639;53.270;7.956;2024-02-14T09:14:13;9.05;;;5.45;;
64297;SDS011;50639;53.270;7.956;2024-02-14T09:16:38;9.85;;;5.18;;
64297;SDS011;50639;53.270;7.956;2024-02-14T09:19:04;8.57;;;4.78;;
64297;SDS011;50639;53.270;7.956;2024-02-14T09:21:33;11.35;;;5.55;;
64297;SDS011;50639;53.270;7.956;2024-02-14T09:24:02;9.20;;;5.22;;
64297;SDS011;50639;53.270;7.956;2024-02-14T09:26:28;12.88;;;6.80;;
64297;SDS011;50639;53.270;7.956;2024-02-14T09:28:54;9.45;;;5.55;;
64297;SDS011;50639;53.270;7.956;2024-02-14T09:31:20;11.52;;;5.55;;
64297;SDS011;50639;53.270;7.956;2024-02-14T09:33:48;10.70;;;6.47;;
64297;SDS011;50639;53.270;7.956;2024-02-14T09:36:15;18.08;;;6.80;;
64297;SDS011;50639;53.270;7.956;2024-02-14T09:38:40;17.10;;;6.90;;
64297;SDS011;50639;53.270;7.956;2024-02-14T09:41:21;22.25;;;7.82;;
64297;SDS011;50639;53.270;7.956;2024-02-14T09:44:05;23.60;;;8.50;;
64297;SDS011;50639;53.270;7.956;2024-02-14T09:46:30;15.65;;;7.55;;
64297;SDS011;50639;53.270;7.956;2024-02-14T09:48:57;17.70;;;7.05;;
64297;SDS011;50639;53.270;7.956;2024-02-14T09:51:26;24.73;;;7.78;;
64297;SDS011;50639;53.270;7.956;2024-02-14T09:56:20;19.33;;;7.40;;
64297;SDS011;50639;53.270;7.956;2024-02-14T10:01:20;13.05;;;6.40;;
64297;SDS011;50639;53.270;7.956;2024-02-14T10:03:49;9.32;;;5.82;;
64297;SDS011;50639;53.270;7.956;2024-02-14T10:06:15;11.10;;;5.87;;
64297;SDS011;50639;53.270;7.956;2024-02-14T10:08:42;15.98;;;6.40;;
64297;SDS011;50639;53.270;7.956;2024-02-14T10:11:07;17.00;;;6.90;;
64297;SDS011;50639;53.270;7.956;2024-02-14T10:13:33;19.33;;;6.95;;
64297;SDS011;50639;53.270;7.956;2024-02-14T10:15:59;18.75;;;7.68;;
64297;SDS011;50639;53.270;7.956;2024-02-14T10:18:25;23.55;;;7.85;;
64297;SDS011;50639;53.270;7.956;2024-02-14T10:20:54;14.13;;;7.50;;
64297;SDS011;50639;53.270;7.956;2024-02-14T10:23:22;15.20;;;7.30;;
64297;SDS011;50639;53.270;7.956;2024-02-14T10:25:49;14.60;;;6.80;;
64297;SDS011;50639;53.270;7.956;2024-02-14T10:28:16;10.07;;;5.78;;
64297;SDS011;50639;53.270;7.956;2024-02-14T10:30:45;15.85;;;6.95;;
64297;SDS011;50639;53.270;7.956;2024-02-14T10:33:11;12.00;;;6.10;;
64297;SDS011;50639;53.270;7.956;2024-02-14T10:35:36;14.63;;;6.53;;
64297;SDS011;50639;53.270;7.956;2024-02-14T10:38:06;12.07;;;6.78;;
64297;SDS011;50639;53.270;7.956;2024-02-14T10:40:34;10.43;;;6.32;;
64297;SDS011;50639;53.270;7.956;2024-02-14T10:43:01;19.80;;;7.55;;
64297;SDS011;50639;53.270;7.956;2024-02-14T10:45:26;13.48;;;7.00;;
64297;SDS011;50639;53.270;7.956;2024-02-14T10:47:55;21.90;;;7.80;;
64297;SDS011;50639;53.270;7.956;2024-02-14T10:50:22;22.10;;;8.20;;
64297;SDS011;50639;53.270;7.956;2024-02-14T10:52:49;14.05;;;7.55;;
64297;SDS011;50639;53.270;7.956;2024-02-14T10:55:18;13.27;;;7.10;;
64297;SDS011;50639;53.270;7.956;2024-02-14T10:57:46;23.00;;;10.35;;
64297;SDS011;50639;53.270;7.956;2024-02-14T11:00:12;23.77;;;8.50;;
64297;SDS011;50639;53.270;7.956;2024-02-14T11:02:40;27.58;;;7.78;;
64297;SDS011;50639;53.270;7.956;2024-02-14T11:05:13;14.98;;;6.05;;
64297;SDS011;50639;53.270;7.956;2024-02-14T11:07:46;21.75;;;7.65;;
64297;SDS011;50639;53.270;7.956;2024-02-14T11:10:15;14.00;;;7.43;;
64297;SDS011;50639;53.270;7.956;2024-02-14T11:12:42;12.45;;;7.70;;
64297;SDS011;50639;53.270;7.956;2024-02-14T11:15:20;11.30;;;8.30;;
64297;SDS011;50639;53.270;7.956;2024-02-14T11:17:47;21.50;;;9.00;;
64297;SDS011;50639;53.270;7.956;2024-02-14T11:20:20;15.60;;;8.40;;
64297;SDS011;50639;53.270;7.956;2024-02-14T11:22:52;12.25;;;8.63;;
64297;SDS011;50639;53.270;7.956;2024-02-14T11:25:34;14.48;;;8.73;;
64297;SDS011;50639;53.270;7.956;2024-02-14T11:28:01;12.82;;;8.85;;
64297;SDS011;50639;53.270;7.956;2024-02-14T11:30:51;9.52;;;7.97;;
64297;SDS011;50639;53.270;7.956;2024-02-14T11:33:17;12.00;;;8.75;;
64297;SDS011;50639;53.270;7.956;2024-02-14T11:38:10;21.98;;;9.40;;
64297;SDS011;50639;53.270;7.956;2024-02-14T11:40:36;13.70;;;10.43;;
64297;SDS011;50639;53.270;7.956;2024-02-14T11:43:04;11.18;;;9.63;;
64297;SDS011;50639;53.270;7.956;2024-02-14T11:45:35;11.75;;;9.40;;
64297;SDS011;50639;53.270;7.956;2024-02-14T11:48:01;11.35;;;9.40;;
64297;SDS011;50639;53.270;7.956;2024-02-14T11:50:26;13.23;;;11.82;;
64297;SDS011;50639;53.270;7.956;2024-02-14T11:52:52;11.65;;;10.38;;
64297;SDS011;50639;53.270;7.956;2024-02-14T11:55:18;10.43;;;8.85;;
64297;SDS011;50639;53.270;7.956;2024-02-14T11:57:43;16.38;;;10.50;;
64297;SDS011;50639;53.270;7.956;2024-02-14T12:00:09;13.75;;;8.77;;
64297;SDS011;50639;53.270;7.956;2024-02-14T12:02:35;13.82;;;10.77;;
64297;SDS011;50639;53.270;7.956;2024-02-14T12:05:01;11.02;;;9.18;;
64297;SDS011;50639;53.270;7.956;2024-02-14T12:07:30;10.63;;;9.38;;
64297;SDS011;50639;53.270;7.956;2024-02-14T12:09:56;12.90;;;9.20;;
64297;SDS011;50639;53.270;7.956;2024-02-14T12:12:22;12.60;;;9.25;;
64297;SDS011;50639;53.270;7.956;2024-02-14T12:14:51;9.63;;;8.38;;
64297;SDS011;50639;53.270;7.956;2024-02-14T12:17:17;9.60;;;7.85;;
64297;SDS011;50639;53.270;7.956;2024-02-14T12:19:47;11.23;;;8.63;;
64297;SDS011;50639;53.270;7.956;2024-02-14T12:22:13;9.70;;;8.10;;
64297;SDS011;50639;53.270;7.956;2024-02-14T12:24:43;10.13;;;8.20;;
64297;SDS011;50639;53.270;7.956;2024-02-14T12:27:10;8.85;;;7.38;;
64297;SDS011;50639;53.270;7.956;2024-02-14T12:29:35;8.20;;;6.28;;
64297;SDS011;50639;53.270;7.956;2024-02-14T12:32:07;9.30;;;7.43;;
64297;SDS011;50639;53.270;7.956;2024-02-14T12:34:33;8.00;;;6.40;;
64297;SDS011;50639;53.270;7.956;2024-02-14T12:36:59;8.40;;;6.82;;
64297;SDS011;50639;53.270;7.956;2024-02-14T12:39:26;9.70;;;7.57;;
64297;SDS011;50639;53.270;7.956;2024-02-14T12:41:52;8.75;;;5.80;;
64297;SDS011;50639;53.270;7.956;2024-02-14T12:44:18;7.55;;;5.43;;
64297;SDS011;50639;53.270;7.956;2024-02-14T12:46:43;8.00;;;6.32;;
64297;SDS011;50639;53.270;7.956;2024-02-14T12:49:10;8.48;;;7.28;;
64297;SDS011;50639;53.270;7.956;2024-02-14T12:51:36;9.10;;;5.80;;
64297;SDS011;50639;53.270;7.956;2024-02-14T12:54:03;8.55;;;5.88;;
64297;SDS011;50639;53.270;7.956;2024-02-14T12:56:29;8.20;;;6.35;;
64297;SDS011;50639;53.270;7.956;2024-02-14T12:58:55;7.75;;;5.20;;
64297;SDS011;50639;53.270;7.956;2024-02-14T13:01:20;8.95;;;6.70;;
64297;SDS011;50639;53.270;7.956;2024-02-14T13:03:45;10.07;;;6.00;;
64297;SDS011;50639;53.270;7.956;2024-02-14T13:06:11;7.68;;;5.80;;
64297;SDS011;50639;53.270;7.956;2024-02-14T13:08:36;9.73;;;6.22;;
64297;SDS011;50639;53.270;7.956;2024-02-14T13:13:29;7.10;;;5.43;;
64297;SDS011;50639;53.270;7.956;2024-02-14T13:15:55;7.97;;;5.95;;
64297;SDS011;50639;53.270;7.956;2024-02-14T13:18:20;7.65;;;5.80;;
64297;SDS011;50639;53.270;7.956;2024-02-14T13:20:46;8.27;;;6.57;;
64297;SDS011;50639;53.270;7.956;2024-02-14T13:23:11;7.63;;;5.63;;
64297;SDS011;50639;53.270;7.956;2024-02-14T13:25:37;7.75;;;6.07;;
64297;SDS011;50639;53.270;7.956;2024-02-14T13:28:05;12.10;;;7.18;;
64297;SDS011;50639;53.270;7.956;2024-02-14T13:30:31;8.40;;;6.40;;
64297;SDS011;50639;53.270;7.956;2024-02-14T13:32:57;10.20;;;7.38;;
64297;SDS011;50639;53.270;7.956;2024-02-14T13:35:22;10.32;;;8.95;;
64297;SDS011;50639;53.270;7.956;2024-02-14T13:37:48;8.27;;;6.80;;
64297;SDS011;50639;53.270;7.956;2024-02-14T13:40:14;8.88;;;7.13;;
64297;SDS011;50639;53.270;7.956;2024-02-14T13:42:40;8.75;;;6.93;;
64297;SDS011;50639;53.270;7.956;2024-02-14T13:45:05;10.07;;;7.15;;
64297;SDS011;50639;53.270;7.956;2024-02-14T13:47:36;9.23;;;7.45;;
64297;SDS011;50639;53.270;7.956;2024-02-14T13:50:04;10.43;;;7.30;;
64297;SDS011;50639;53.270;7.956;2024-02-14T13:52:31;11.10;;;8.75;;
64297;SDS011;50639;53.270;7.956;2024-02-14T13:54:56;10.00;;;8.00;;
64297;SDS011;50639;53.270;7.956;2024-02-14T13:57:21;10.00;;;8.13;;
64297;SDS011;50639;53.270;7.956;2024-02-14T13:59:47;9.38;;;6.90;;
64297;SDS011;50639;53.270;7.956;2024-02-14T14:02:13;9.90;;;8.15;;
64297;SDS011;50639;53.270;7.956;2024-02-14T14:04:38;11.80;;;9.02;;
64297;SDS011;50639;53.270;7.956;2024-02-14T14:07:04;18.15;;;9.43;;
64297;SDS011;50639;53.270;7.956;2024-02-14T14:09:29;12.25;;;9.27;;
64297;SDS011;50639;53.270;7.956;2024-02-14T14:11:58;15.20;;;10.68;;
64297;SDS011;50639;53.270;7.956;2024-02-14T14:14:23;11.48;;;9.85;;
64297;SDS011;50639;53.270;7.956;2024-02-14T14:16:54;11.63;;;10.20;;
64297;SDS011;50639;53.270;7.956;2024-02-14T14:19:20;11.55;;;10.00;;
64297;SDS011;50639;53.270;7.956;2024-02-14T14:21:45;12.00;;;9.90;;
64297;SDS011;50639;53.270;7.956;2024-02-14T14:24:11;12.02;;;9.88;;
64297;SDS011;50639;53.270;7.956;2024-02-14T14:26:36;11.75;;;9.85;;
64297;SDS011;50639;53.270;7.956;2024-02-14T14:29:02;12.73;;;9.98;;
64297;SDS011;50639;53.270;7.956;2024-02-14T14:31:28;12.55;;;9.88;;
64297;SDS011;50639;53.270;7.956;2024-02-14T14:33:53;12.10;;;9.40;;
64297;SDS011;50639;53.270;7.956;2024-02-14T14:36:19;12.60;;;10.10;;
64297;SDS011;50639;53.270;7.956;2024-02-14T14:38:45;11.70;;;10.50;;
64297;SDS011;50639;53.270;7.956;2024-02-14T14:41:10;14.00;;;11.13;;
64297;SDS011;50639;53.270;7.956;2024-02-14T14:43:36;15.13;;;11.88;;
64297;SDS011;50639;53.270;7.956;2024-02-14T14:46:02;12.38;;;10.93;;